createdAt,value
2018-12-27T00:00:09.907Z,99.99
2018-12-27T00:01:09.884Z,99.99
2018-12-27T00:02:09.895Z,99.99
2018-12-27T00:03:09.875Z,99.99
2018-12-27T00:04:09.858Z,99.99
2018-12-27T00:05:09.835Z,99.99
2018-12-27T00:06:09.823Z,99.99
2018-12-27T00:07:09.838Z,99.99
2018-12-27T00:08:09.807Z,99.99
2018-12-27T00:09:09.811Z,99.99
2018-12-27T00:10:09.800Z,99.99
2018-12-27T00:11:09.775Z,99.99
2018-12-27T00:12:09.786Z,99.99
2018-12-27T00:13:09.751Z,99.99
2018-12-27T00:14:09.742Z,99.99
2018-12-27T00:15:09.726Z,99.99
2018-12-27T00:16:09.727Z,99.99
2018-12-27T00:17:09.750Z,99.99
2018-12-27T00:18:09.702Z,99.99
2018-12-27T00:19:09.691Z,99.99
2018-12-27T00:20:09.693Z,99.99
2018-12-27T00:21:09.685Z,99.99
2018-12-27T00:22:09.694Z,99.99
2018-12-27T00:23:09.691Z,99.99
2018-12-27T00:24:09.635Z,99.99
2018-12-27T00:25:09.617Z,99.99
2018-12-27T00:26:09.598Z,99.99
2018-12-27T00:27:09.638Z,99.99
2018-12-27T00:28:09.582Z,99.99
2018-12-27T00:29:09.577Z,99.99
2018-12-27T00:30:09.571Z,99.99
2018-12-27T00:31:09.569Z,99.99
2018-12-27T00:32:09.546Z,99.99
2018-12-27T00:33:09.550Z,99.99
2018-12-27T00:34:09.511Z,99.99
2018-12-27T00:35:09.518Z,99.99
2018-12-27T00:36:09.504Z,99.99
2018-12-27T00:37:09.487Z,99.99
2018-12-27T00:38:09.497Z,99.99
2018-12-27T00:39:09.470Z,99.99
2018-12-27T00:40:09.448Z,99.99
2018-12-27T00:41:09.452Z,99.99
2018-12-27T00:42:09.446Z,99.99
2018-12-27T00:43:09.450Z,99.99
2018-12-27T00:44:09.417Z,99.99
2018-12-27T00:45:09.391Z,99.99
2018-12-27T00:46:09.391Z,99.99
2018-12-27T00:47:09.379Z,99.99
2018-12-27T00:48:09.409Z,99.99
2018-12-27T00:49:09.360Z,99.99
2018-12-27T00:50:09.360Z,99.99
2018-12-27T00:51:09.384Z,99.99
2018-12-27T00:52:09.315Z,99.99
2018-12-27T00:53:09.329Z,99.99
2018-12-27T00:54:09.321Z,99.99
2018-12-27T00:55:09.323Z,99.99
2018-12-27T00:56:09.291Z,99.99
2018-12-27T00:57:09.268Z,99.99
2018-12-27T00:58:09.291Z,99.99
2018-12-27T00:59:09.244Z,99.99
2018-12-27T01:00:09.236Z,99.99
2018-12-27T01:01:09.234Z,99.99
2018-12-27T01:02:09.226Z,99.99
2018-12-27T01:03:11.247Z,99.99
2018-12-27T01:04:09.219Z,99.99
2018-12-27T01:05:09.193Z,99.99
2018-12-27T01:06:09.174Z,99.99
2018-12-27T01:07:09.172Z,99.99
2018-12-27T01:08:09.163Z,99.99
2018-12-27T01:09:09.133Z,99.99
2018-12-27T01:10:09.145Z,99.99
2018-12-27T01:11:09.141Z,99.99
2018-12-27T01:12:09.099Z,99.99
2018-12-27T01:13:09.093Z,99.99
2018-12-27T01:14:09.087Z,99.99
2018-12-27T01:15:09.096Z,99.99
2018-12-27T01:16:09.100Z,99.99
2018-12-27T01:17:09.058Z,99.99
2018-12-27T01:18:09.034Z,99.99
2018-12-27T01:19:09.027Z,99.99
2018-12-27T01:20:09.011Z,99.99
2018-12-27T01:21:09.044Z,99.99
2018-12-27T01:22:09.017Z,99.99
2018-12-27T01:23:08.985Z,99.99
2018-12-27T01:24:08.969Z,99.99
2018-12-27T01:25:08.975Z,99.99
2018-12-27T01:26:08.947Z,99.99
2018-12-27T01:27:08.969Z,99.99
2018-12-27T01:28:08.934Z,99.99
2018-12-27T01:29:08.910Z,99.99
2018-12-27T01:30:08.898Z,99.99
2018-12-27T01:31:08.899Z,99.99
2018-12-27T01:32:08.900Z,99.99
2018-12-27T01:33:08.875Z,99.99
2018-12-27T01:34:08.873Z,99.99
2018-12-27T01:35:08.861Z,99.99
2018-12-27T01:36:08.843Z,99.99
2018-12-27T01:37:08.840Z,99.99
2018-12-27T01:38:08.809Z,99.99
2018-12-27T01:39:08.806Z,99.99
2018-12-27T01:40:08.800Z,99.99
2018-12-27T01:41:08.793Z,99.99
2018-12-27T01:42:08.791Z,99.99
2018-12-27T01:43:08.761Z,99.99
2018-12-27T01:44:08.739Z,99.99
2018-12-27T01:45:08.744Z,99.99
2018-12-27T01:46:08.733Z,99.99
2018-12-27T01:47:08.735Z,99.99
2018-12-27T01:48:08.723Z,99.99
2018-12-27T01:49:08.687Z,99.99
2018-12-27T01:50:08.671Z,99.99
2018-12-27T01:51:08.705Z,99.99
2018-12-27T01:52:08.664Z,99.99
2018-12-27T01:53:08.679Z,99.99
2018-12-27T01:54:08.646Z,99.99
2018-12-27T01:55:08.628Z,99.99
2018-12-27T01:56:08.614Z,99.99
2018-12-27T01:57:08.614Z,99.99
2018-12-27T01:58:08.629Z,99.99
2018-12-27T01:59:08.580Z,99.99
2018-12-27T02:00:08.573Z,99.99
2018-12-27T02:01:08.549Z,99.99
2018-12-27T02:02:08.546Z,99.99
2018-12-27T02:03:08.552Z,99.99
2018-12-27T02:04:08.538Z,99.99
2018-12-27T02:05:08.519Z,99.99
2018-12-27T02:06:08.514Z,99.99
2018-12-27T02:07:08.501Z,99.99
2018-12-27T02:08:08.509Z,99.99
2018-12-27T02:09:08.469Z,99.99
2018-12-27T02:10:08.460Z,99.99
2018-12-27T02:11:08.453Z,99.99
2018-12-27T02:12:08.441Z,99.99
2018-12-27T02:13:08.462Z,99.99
2018-12-27T02:14:08.418Z,99.99
2018-12-27T02:15:08.411Z,99.99
2018-12-27T02:16:08.405Z,99.99
2018-12-27T02:17:08.394Z,99.99
2018-12-27T02:18:08.398Z,99.99
2018-12-27T02:19:08.364Z,99.99
2018-12-27T02:20:08.355Z,99.99
2018-12-27T02:21:08.339Z,99.99
2018-12-27T02:22:08.323Z,99.99
2018-12-27T02:23:08.331Z,99.99
2018-12-27T02:24:08.302Z,99.99
2018-12-27T02:25:08.302Z,99.99
2018-12-27T02:26:08.286Z,99.99
2018-12-27T02:27:08.282Z,99.99
2018-12-27T02:28:08.292Z,99.99
2018-12-27T02:29:08.265Z,99.99
2018-12-27T02:30:08.251Z,99.99
2018-12-27T02:31:08.243Z,99.99
2018-12-27T02:32:08.224Z,99.99
2018-12-27T02:33:08.216Z,99.99
2018-12-27T02:34:08.221Z,99.99
2018-12-27T02:35:08.189Z,99.99
2018-12-27T02:36:08.172Z,99.99
2018-12-27T02:37:08.170Z,99.99
2018-12-27T02:38:08.167Z,99.99
2018-12-27T02:39:08.170Z,99.99
2018-12-27T02:40:08.134Z,99.99
2018-12-27T02:41:08.116Z,99.99
2018-12-27T02:42:08.105Z,99.99
2018-12-27T02:43:08.101Z,99.99
2018-12-27T02:44:08.120Z,99.99
2018-12-27T02:45:08.073Z,99.99
2018-12-27T02:46:08.072Z,99.99
2018-12-27T02:47:08.052Z,99.99
2018-12-27T02:48:08.040Z,99.99
2018-12-27T02:49:08.039Z,99.99
2018-12-27T02:50:08.043Z,99.99
2018-12-27T02:51:08.013Z,99.99
2018-12-27T02:52:08.036Z,99.99
2018-12-27T02:53:07.988Z,99.99
2018-12-27T02:54:07.996Z,99.99
2018-12-27T02:55:07.985Z,99.99
2018-12-27T02:56:07.952Z,99.99
2018-12-27T02:57:07.943Z,99.99
2018-12-27T02:58:07.934Z,99.99
2018-12-27T02:59:07.917Z,99.99
2018-12-27T03:00:07.924Z,99.99
2018-12-27T03:01:07.902Z,99.99
2018-12-27T03:02:07.899Z,99.99
2018-12-27T03:03:07.881Z,99.99
2018-12-27T03:04:07.871Z,99.99
2018-12-27T03:05:07.874Z,99.99
2018-12-27T03:06:07.837Z,99.99
2018-12-27T03:07:07.835Z,99.99
2018-12-27T03:08:07.821Z,99.99
2018-12-27T03:09:07.822Z,99.99
2018-12-27T03:10:07.827Z,99.99
2018-12-27T03:11:07.795Z,99.99
2018-12-27T03:12:07.783Z,99.99
2018-12-27T03:13:07.771Z,99.99
2018-12-27T03:14:07.755Z,99.99
2018-12-27T03:15:07.783Z,99.99
2018-12-27T03:16:07.737Z,99.99
2018-12-27T03:17:07.718Z,99.99
2018-12-27T03:18:07.703Z,99.99
2018-12-27T03:19:07.701Z,99.99
2018-12-27T03:20:07.693Z,99.99
2018-12-27T03:21:07.895Z,99.99
2018-12-27T03:22:07.673Z,99.99
2018-12-27T03:23:07.670Z,99.99
2018-12-27T03:24:07.659Z,99.99
2018-12-27T03:25:07.627Z,99.99
2018-12-27T03:26:07.644Z,99.99
2018-12-27T03:27:07.628Z,99.99
2018-12-27T03:28:07.690Z,99.99
2018-12-27T03:29:07.597Z,99.99
2018-12-27T03:30:07.596Z,99.99
2018-12-27T03:31:07.591Z,99.99
2018-12-27T03:32:07.558Z,99.99
2018-12-27T03:33:07.558Z,99.99
2018-12-27T03:34:07.541Z,99.99
2018-12-27T03:35:07.529Z,99.99
2018-12-27T03:36:07.537Z,99.99
2018-12-27T03:37:07.508Z,99.99
2018-12-27T03:38:07.512Z,99.99
2018-12-27T03:39:07.484Z,99.99
2018-12-27T03:40:07.472Z,99.99
2018-12-27T03:41:07.521Z,99.99
2018-12-27T03:42:07.465Z,99.99
2018-12-27T03:43:07.441Z,99.99
2018-12-27T03:44:07.435Z,99.99
2018-12-27T03:45:07.418Z,99.99
2018-12-27T03:46:07.422Z,99.99
2018-12-27T03:47:07.399Z,99.99
2018-12-27T03:48:07.397Z,99.99
2018-12-27T03:49:07.377Z,99.99
2018-12-27T03:50:07.359Z,99.99
2018-12-27T03:51:07.379Z,99.99
2018-12-27T03:52:07.330Z,99.99
2018-12-27T03:53:07.333Z,99.99
2018-12-27T03:54:07.324Z,99.99
2018-12-27T03:55:07.301Z,99.99
2018-12-27T03:56:07.312Z,99.99
2018-12-27T03:57:07.322Z,99.99
2018-12-27T03:58:07.276Z,99.93
2018-12-27T03:59:07.271Z,99.99
2018-12-27T04:00:07.257Z,99.99
2018-12-27T04:01:07.236Z,99.99
2018-12-27T04:02:07.251Z,99.99
2018-12-27T04:03:07.220Z,99.99
2018-12-27T04:04:07.219Z,99.99
2018-12-27T04:05:07.191Z,99.99
2018-12-27T04:06:07.177Z,99.99
2018-12-27T04:07:07.190Z,99.82
2018-12-27T04:08:07.165Z,99.99
2018-12-27T04:09:07.158Z,99.62
2018-12-27T04:10:07.144Z,99.99
2018-12-27T04:11:07.132Z,99.99
2018-12-27T04:12:07.147Z,99.77
2018-12-27T04:13:07.119Z,99.82
2018-12-27T04:14:07.098Z,99.93
2018-12-27T04:15:07.078Z,99.62
2018-12-27T04:16:07.075Z,99.99
2018-12-27T04:17:07.082Z,99.87
2018-12-27T04:18:07.050Z,99.99
2018-12-27T04:19:07.037Z,99.87
2018-12-27T04:20:07.022Z,99.72
2018-12-27T04:21:07.026Z,99.52
2018-12-27T04:22:07.049Z,99.62
2018-12-27T04:23:07.009Z,99.93
2018-12-27T04:24:06.989Z,99.77
2018-12-27T04:25:06.962Z,99.41
2018-12-27T04:26:06.962Z,99.66
2018-12-27T04:27:06.941Z,99.99
2018-12-27T04:28:06.953Z,99.99
2018-12-27T04:29:06.931Z,99.77
2018-12-27T04:30:06.929Z,99.66
2018-12-27T04:31:06.916Z,99.77
2018-12-27T04:32:06.902Z,99.15
2018-12-27T04:33:06.897Z,99.77
2018-12-27T04:34:09.586Z,99.77
2018-12-27T04:35:06.867Z,99.66
2018-12-27T04:36:06.855Z,99.66
2018-12-27T04:37:06.848Z,99.66
2018-12-27T04:38:06.853Z,99.77
2018-12-27T04:39:06.816Z,99.77
2018-12-27T04:40:06.828Z,99.87
2018-12-27T04:41:06.802Z,99.99
2018-12-27T04:42:06.798Z,99.99
2018-12-27T04:43:06.822Z,99.77
2018-12-27T04:44:06.788Z,99.87
2018-12-27T04:45:06.756Z,99.56
2018-12-27T04:46:06.737Z,99.66
2018-12-27T04:47:06.734Z,99.98
2018-12-27T04:48:06.715Z,99.99
2018-12-27T04:49:06.740Z,99.98
2018-12-27T04:50:06.705Z,99.98
2018-12-27T04:51:06.710Z,99.99
2018-12-27T04:52:06.676Z,99.77
2018-12-27T04:53:06.675Z,99.56
2018-12-27T04:54:06.657Z,99.87
2018-12-27T04:55:06.642Z,99.77
2018-12-27T04:56:06.642Z,99.46
2018-12-27T04:57:06.643Z,99.05
2018-12-27T04:58:06.610Z,99.15
2018-12-27T04:59:06.598Z,99.15
2018-12-27T05:00:06.590Z,99.25
2018-12-27T05:01:06.619Z,99.05
2018-12-27T05:02:06.580Z,99.35
2018-12-27T05:03:06.566Z,99.25
2018-12-27T05:04:06.552Z,98.43
2018-12-27T05:05:06.560Z,98.63
2018-12-27T05:06:06.519Z,98.43
2018-12-27T05:07:06.521Z,98.11
2018-12-27T05:08:06.507Z,98.32
2018-12-27T05:09:06.491Z,97.85
2018-12-27T05:10:06.502Z,97.81
2018-12-27T05:11:06.484Z,98.01
2018-12-27T05:12:06.449Z,98.16
2018-12-27T05:13:06.469Z,98.22
2018-12-27T05:14:06.447Z,97.91
2018-12-27T05:15:06.454Z,97.85
2018-12-27T05:16:06.420Z,98.37
2018-12-27T05:17:06.417Z,97.96
2018-12-27T05:18:06.408Z,97.96
2018-12-27T05:19:06.381Z,97.64
2018-12-27T05:20:06.387Z,97.75
2018-12-27T05:21:06.366Z,97.54
2018-12-27T05:22:06.382Z,97.33
2018-12-27T05:23:06.337Z,97.33
2018-12-27T05:24:06.395Z,96.97
2018-12-27T05:25:06.315Z,97.07
2018-12-27T05:26:06.319Z,97.38
2018-12-27T05:27:06.330Z,97.49
2018-12-27T05:28:06.290Z,97.59
2018-12-27T05:29:06.261Z,96.97
2018-12-27T05:30:06.292Z,97.69
2018-12-27T05:31:06.244Z,97.49
2018-12-27T05:32:06.233Z,97.59
2018-12-27T05:33:06.262Z,97.49
2018-12-27T05:34:06.230Z,97.38
2018-12-27T05:35:06.208Z,97.28
2018-12-27T05:36:06.192Z,96.82
2018-12-27T05:37:06.174Z,96.97
2018-12-27T05:38:06.169Z,96.82
2018-12-27T05:39:06.182Z,96.76
2018-12-27T05:40:06.147Z,96.72
2018-12-27T05:41:06.143Z,97.54
2018-12-27T05:42:06.127Z,97.38
2018-12-27T05:43:06.133Z,96.51
2018-12-27T05:44:06.100Z,96.20
2018-12-27T05:45:06.094Z,95.94
2018-12-27T05:46:06.089Z,95.89
2018-12-27T05:47:06.097Z,95.89
2018-12-27T05:48:06.088Z,95.62
2018-12-27T05:49:06.043Z,96.34
2018-12-27T05:50:06.035Z,96.66
2018-12-27T05:51:06.024Z,97.02
2018-12-27T05:52:06.022Z,96.55
2018-12-27T05:53:06.032Z,96.76
2018-12-27T05:54:06.001Z,96.66
2018-12-27T05:55:05.992Z,96.45
2018-12-27T05:56:05.974Z,96.86
2018-12-27T05:57:05.983Z,98.00
2018-12-27T05:58:05.974Z,97.28
2018-12-27T05:59:05.942Z,96.97
2018-12-27T06:00:05.941Z,97.59
2018-12-27T06:01:05.925Z,97.07
2018-12-27T06:02:05.909Z,97.28
2018-12-27T06:03:05.930Z,96.34
2018-12-27T06:04:05.892Z,96.76
2018-12-27T06:05:05.876Z,96.55
2018-12-27T06:06:05.860Z,96.97
2018-12-27T06:07:05.857Z,97.28
2018-12-27T06:08:05.844Z,96.86
2018-12-27T06:09:05.843Z,96.86
2018-12-27T06:10:05.808Z,96.03
2018-12-27T06:11:05.821Z,96.24
2018-12-27T06:12:05.809Z,96.97
2018-12-27T06:13:05.775Z,96.86
2018-12-27T06:14:05.800Z,96.97
2018-12-27T06:15:05.758Z,96.70
2018-12-27T06:16:05.749Z,96.80
2018-12-27T06:17:05.749Z,96.19
2018-12-27T06:18:05.754Z,96.39
2018-12-27T06:19:05.732Z,96.80
2018-12-27T06:20:05.738Z,96.39
2018-12-27T06:21:05.695Z,95.67
2018-12-27T06:22:05.678Z,96.34
2018-12-27T06:23:05.678Z,96.29
2018-12-27T06:24:05.661Z,96.49
2018-12-27T06:25:05.657Z,95.56
2018-12-27T06:26:05.674Z,95.04
2018-12-27T06:27:05.636Z,95.67
2018-12-27T06:28:05.619Z,96.19
2018-12-27T06:29:05.624Z,95.56
2018-12-27T06:30:05.602Z,96.29
2018-12-27T06:31:05.609Z,96.08
2018-12-27T06:32:05.594Z,97.11
2018-12-27T06:33:05.558Z,96.70
2018-12-27T06:34:05.549Z,96.70
2018-12-27T06:35:05.534Z,96.12
2018-12-27T06:36:05.557Z,96.29
2018-12-27T06:37:05.524Z,96.39
2018-12-27T06:38:05.595Z,96.02
2018-12-27T06:39:05.506Z,95.56
2018-12-27T06:40:05.496Z,95.71
2018-12-27T06:41:05.470Z,96.02
2018-12-27T06:42:05.478Z,95.71
2018-12-27T06:43:05.461Z,95.92
2018-12-27T06:44:05.445Z,95.71
2018-12-27T06:45:05.425Z,95.29
2018-12-27T06:46:05.435Z,94.37
2018-12-27T06:47:05.441Z,94.93
2018-12-27T06:48:05.404Z,94.10
2018-12-27T06:49:05.422Z,95.14
2018-12-27T06:50:05.392Z,94.51
2018-12-27T06:51:05.406Z,94.14
2018-12-27T06:52:05.373Z,93.00
2018-12-27T06:53:05.352Z,94.04
2018-12-27T06:54:05.352Z,92.69
2018-12-27T06:55:05.329Z,93.00
2018-12-27T06:56:05.336Z,92.90
2018-12-27T06:57:05.309Z,92.22
2018-12-27T06:58:05.323Z,91.91
2018-12-27T06:59:05.285Z,91.28
2018-12-27T07:00:05.433Z,91.39
2018-12-27T07:01:05.288Z,91.80
2018-12-27T07:02:05.277Z,91.64
2018-12-27T07:03:05.272Z,91.80
2018-12-27T07:04:05.242Z,90.25
2018-12-27T07:05:05.217Z,89.56
2018-12-27T07:06:05.209Z,89.25
2018-12-27T07:07:05.190Z,88.79
2018-12-27T07:08:05.200Z,89.52
2018-12-27T07:09:05.180Z,89.00
2018-12-27T07:10:05.164Z,88.59
2018-12-27T07:11:05.154Z,88.59
2018-12-27T07:12:05.141Z,88.48
2018-12-27T07:13:05.142Z,87.66
2018-12-27T07:14:05.114Z,87.24
2018-12-27T07:15:05.109Z,87.72
2018-12-27T07:16:05.101Z,88.13
2018-12-27T07:17:05.080Z,88.18
2018-12-27T07:18:05.101Z,87.51
2018-12-27T07:19:05.067Z,87.14
2018-12-27T07:20:05.049Z,87.87
2018-12-27T07:21:05.056Z,87.97
2018-12-27T07:22:05.037Z,88.59
2018-12-27T07:23:05.043Z,88.18
2018-12-27T07:24:05.011Z,89.31
2018-12-27T07:25:04.993Z,89.42
2018-12-27T07:26:04.987Z,89.15
2018-12-27T07:27:04.976Z,89.46
2018-12-27T07:28:04.998Z,89.11
2018-12-27T07:29:04.960Z,89.77
2018-12-27T07:30:04.973Z,89.83
2018-12-27T07:31:04.948Z,89.77
2018-12-27T07:32:04.911Z,89.52
2018-12-27T07:33:04.937Z,89.77
2018-12-27T07:34:04.907Z,90.29
2018-12-27T07:35:04.897Z,90.50
2018-12-27T07:36:04.900Z,91.33
2018-12-27T07:37:04.856Z,91.12
2018-12-27T07:38:04.853Z,91.22
2018-12-27T07:39:04.859Z,90.60
2018-12-27T07:40:04.838Z,90.81
2018-12-27T07:41:04.827Z,90.87
2018-12-27T07:42:04.829Z,90.91
2018-12-27T07:43:04.804Z,90.87
2018-12-27T07:44:04.814Z,91.18
2018-12-27T07:45:04.785Z,90.56
2018-12-27T07:46:10.924Z,90.14
2018-12-27T07:47:05.821Z,90.56
2018-12-27T07:48:04.756Z,90.45
2018-12-27T07:49:04.758Z,90.66
2018-12-27T07:50:04.720Z,90.72
2018-12-27T07:51:04.710Z,89.89
2018-12-27T07:52:04.721Z,90.10
2018-12-27T07:53:04.699Z,90.72
2018-12-27T07:54:04.709Z,89.65
2018-12-27T07:55:04.674Z,89.54
2018-12-27T07:56:04.665Z,89.23
2018-12-27T07:57:04.659Z,89.03
2018-12-27T07:58:04.634Z,90.37
2018-12-27T07:59:04.646Z,90.37
2018-12-27T08:00:04.610Z,91.41
2018-12-27T08:01:04.611Z,90.78
2018-12-27T08:02:04.617Z,90.06
2018-12-27T08:03:04.591Z,90.37
2018-12-27T08:04:04.564Z,91.55
2018-12-27T08:05:04.649Z,92.03
2018-12-27T08:06:04.584Z,92.24
2018-12-27T08:07:04.587Z,92.24
2018-12-27T08:08:04.557Z,91.66
2018-12-27T08:09:04.515Z,91.61
2018-12-27T08:10:04.501Z,91.86
2018-12-27T08:11:04.510Z,91.66
2018-12-27T08:12:04.477Z,91.97
2018-12-27T08:13:04.501Z,91.61
2018-12-27T08:14:04.469Z,92.03
2018-12-27T08:15:04.463Z,91.93
2018-12-27T08:16:04.452Z,91.72
2018-12-27T08:17:04.426Z,91.93
2018-12-27T08:18:04.452Z,92.03
2018-12-27T08:19:04.414Z,92.03
2018-12-27T08:20:04.402Z,92.44
2018-12-27T08:21:04.396Z,91.93
2018-12-27T08:22:04.376Z,92.34
2018-12-27T08:23:04.356Z,92.44
2018-12-27T08:24:04.376Z,92.55
2018-12-27T08:25:04.366Z,91.72
2018-12-27T08:26:04.340Z,91.93
2018-12-27T08:27:04.320Z,92.34
2018-12-27T08:28:04.350Z,91.93
2018-12-27T08:29:04.319Z,91.82
2018-12-27T08:30:04.307Z,92.76
2018-12-27T08:31:04.273Z,92.55
2018-12-27T08:32:04.262Z,92.76
2018-12-27T08:33:04.256Z,92.40
2018-12-27T08:34:04.254Z,93.06
2018-12-27T08:35:11.209Z,92.44
2018-12-27T08:36:05.222Z,93.06
2018-12-27T08:37:04.223Z,93.58
2018-12-27T08:38:04.203Z,94.51
2018-12-27T08:39:04.217Z,94.20
2018-12-27T08:40:04.193Z,93.95
2018-12-27T08:41:04.195Z,94.51
2018-12-27T08:42:04.159Z,93.99
2018-12-27T08:43:04.147Z,94.20
2018-12-27T08:44:04.138Z,93.79
2018-12-27T08:45:04.156Z,94.31
2018-12-27T08:46:04.130Z,94.10
2018-12-27T08:47:04.114Z,94.82
2018-12-27T08:48:04.101Z,94.06
2018-12-27T08:49:04.082Z,94.72
2018-12-27T08:50:04.086Z,94.26
2018-12-27T08:51:04.114Z,95.50
2018-12-27T08:52:04.069Z,94.89
2018-12-27T08:53:04.047Z,94.37
2018-12-27T08:54:04.025Z,94.37
2018-12-27T08:55:04.039Z,94.06
2018-12-27T08:56:04.004Z,94.93
2018-12-27T08:57:03.998Z,94.98
2018-12-27T08:58:03.996Z,95.24
2018-12-27T08:59:03.978Z,95.54
2018-12-27T09:00:03.980Z,95.09
2018-12-27T09:01:03.952Z,94.89
2018-12-27T09:02:03.933Z,95.03
2018-12-27T09:03:03.939Z,95.19
2018-12-27T09:04:03.930Z,95.29
2018-12-27T09:05:03.925Z,95.92
2018-12-27T09:06:03.894Z,95.61
2018-12-27T09:07:04.234Z,95.61
2018-12-27T09:08:03.864Z,95.61
2018-12-27T09:09:03.874Z,95.40
2018-12-27T09:10:03.881Z,95.40
2018-12-27T09:11:03.847Z,95.50
2018-12-27T09:12:03.841Z,95.71
2018-12-27T09:13:03.822Z,95.71
2018-12-27T09:14:03.832Z,95.81
2018-12-27T09:15:03.798Z,96.02
2018-12-27T09:16:03.782Z,96.75
2018-12-27T09:17:03.783Z,96.95
2018-12-27T09:18:03.774Z,96.75
2018-12-27T09:19:03.771Z,96.64
2018-12-27T09:20:03.773Z,96.23
2018-12-27T09:21:03.738Z,96.95
2018-12-27T09:22:03.722Z,96.64
2018-12-27T09:23:03.723Z,96.54
2018-12-27T09:24:03.759Z,96.64
2018-12-27T09:25:03.706Z,96.85
2018-12-27T09:26:03.689Z,96.75
2018-12-27T09:27:03.666Z,96.54
2018-12-27T09:28:03.650Z,96.54
2018-12-27T09:29:03.651Z,96.64
2018-12-27T09:30:03.668Z,96.64
2018-12-27T09:31:03.629Z,96.44
2018-12-27T09:32:03.623Z,96.75
2018-12-27T09:33:03.608Z,96.75
2018-12-27T09:34:03.592Z,96.33
2018-12-27T09:35:03.600Z,96.23
2018-12-27T09:36:03.568Z,95.92
2018-12-27T09:37:03.564Z,97.16
2018-12-27T09:38:03.555Z,96.33
2018-12-27T09:39:03.547Z,97.16
2018-12-27T09:40:03.610Z,96.64
2018-12-27T09:41:03.527Z,96.75
2018-12-27T09:42:03.515Z,96.75
2018-12-27T09:43:03.496Z,96.75
2018-12-27T09:44:03.494Z,96.12
2018-12-27T09:45:03.472Z,96.75
2018-12-27T09:46:03.480Z,96.54
2018-12-27T09:47:03.443Z,96.19
2018-12-27T09:48:03.441Z,96.75
2018-12-27T09:49:03.432Z,96.75
2018-12-27T09:50:03.430Z,96.85
2018-12-27T09:51:03.439Z,97.01
2018-12-27T09:52:03.417Z,96.44
2018-12-27T09:53:03.389Z,96.91
2018-12-27T09:54:03.909Z,96.75
2018-12-27T09:55:03.370Z,96.85
2018-12-27T09:56:03.394Z,96.64
2018-12-27T09:57:03.337Z,96.44
2018-12-27T09:58:03.330Z,96.75
2018-12-27T09:59:03.331Z,97.01
2018-12-27T10:00:03.308Z,96.95
2018-12-27T10:01:03.301Z,96.91
2018-12-27T10:02:03.318Z,96.91
2018-12-27T10:03:03.285Z,97.01
2018-12-27T10:04:03.289Z,97.53
2018-12-27T10:05:03.246Z,97.74
2018-12-27T10:06:04.578Z,98.15
2018-12-27T10:07:03.237Z,97.11
2018-12-27T10:08:03.221Z,97.01
2018-12-27T10:09:03.218Z,97.01
2018-12-27T10:10:03.298Z,96.39
2018-12-27T10:11:03.184Z,96.39
2018-12-27T10:12:03.202Z,96.80
2018-12-27T10:13:03.175Z,96.49
2018-12-27T10:14:03.183Z,97.01
2018-12-27T10:15:03.154Z,96.91
2018-12-27T10:16:03.142Z,96.39
2018-12-27T10:17:03.119Z,97.11
2018-12-27T10:18:03.149Z,96.86
2018-12-27T10:19:03.104Z,96.80
2018-12-27T10:20:03.097Z,95.98
2018-12-27T10:21:03.087Z,97.01
2018-12-27T10:22:03.068Z,96.59
2018-12-27T10:23:03.059Z,96.80
2018-12-27T10:24:03.091Z,96.86
2018-12-27T10:25:03.050Z,96.55
2018-12-27T10:26:03.022Z,96.66
2018-12-27T10:27:03.019Z,96.55
2018-12-27T10:28:03.003Z,96.66
2018-12-27T10:29:03.002Z,95.73
2018-12-27T10:30:02.993Z,96.24
2018-12-27T10:31:02.974Z,96.97
2018-12-27T10:32:02.960Z,95.83
2018-12-27T10:33:02.954Z,95.83
2018-12-27T10:34:02.981Z,97.07
2018-12-27T10:35:02.941Z,96.76
2018-12-27T10:36:02.919Z,96.66
2018-12-27T10:37:02.908Z,95.62
2018-12-27T10:38:02.889Z,97.07
2018-12-27T10:39:02.878Z,96.45
2018-12-27T10:40:02.899Z,96.45
2018-12-27T10:41:02.862Z,96.34
2018-12-27T10:42:02.862Z,96.97
2018-12-27T10:43:02.832Z,96.03
2018-12-27T10:44:02.827Z,96.76
2018-12-27T10:45:02.849Z,96.66
2018-12-27T10:46:02.812Z,96.86
2018-12-27T10:47:02.794Z,97.01
2018-12-27T10:48:02.792Z,96.66
2018-12-27T10:49:02.763Z,96.86
2018-12-27T10:50:02.751Z,96.76
2018-12-27T10:51:02.779Z,96.03
2018-12-27T10:52:02.734Z,95.62
2018-12-27T10:53:02.733Z,95.94
2018-12-27T10:54:02.729Z,96.03
2018-12-27T10:55:02.717Z,96.55
2018-12-27T10:56:02.733Z,96.97
2018-12-27T10:57:02.694Z,96.55
2018-12-27T10:58:02.668Z,96.61
2018-12-27T10:59:02.668Z,96.92
2018-12-27T11:00:02.666Z,96.51
2018-12-27T11:01:02.653Z,96.51
2018-12-27T11:02:02.617Z,96.82
2018-12-27T11:03:02.619Z,96.92
2018-12-27T11:04:02.610Z,96.51
2018-12-27T11:05:02.610Z,97.02
2018-12-27T11:06:02.616Z,96.41
2018-12-27T11:07:02.588Z,96.61
2018-12-27T11:08:02.571Z,96.92
2018-12-27T11:09:02.583Z,96.30
2018-12-27T11:10:02.536Z,96.09
2018-12-27T11:11:02.541Z,96.82
2018-12-27T11:12:02.515Z,95.48
2018-12-27T11:13:02.506Z,95.68
2018-12-27T11:14:02.504Z,96.41
2018-12-27T11:15:02.482Z,96.20
2018-12-27T11:16:02.495Z,95.99
2018-12-27T11:17:02.475Z,96.36
2018-12-27T11:18:02.458Z,96.26
2018-12-27T11:19:02.445Z,95.84
2018-12-27T11:20:02.457Z,95.53
2018-12-27T11:21:02.456Z,96.26
2018-12-27T11:22:02.400Z,96.05
2018-12-27T11:23:02.398Z,95.64
2018-12-27T11:24:02.406Z,95.74
2018-12-27T11:25:02.462Z,95.53
2018-12-27T11:26:02.389Z,95.32
2018-12-27T11:27:02.406Z,95.22
2018-12-27T11:28:02.349Z,95.32
2018-12-27T11:29:02.352Z,94.40
2018-12-27T11:30:02.330Z,95.22
2018-12-27T11:31:02.333Z,95.53
2018-12-27T11:32:02.315Z,95.53
2018-12-27T11:33:02.299Z,95.53
2018-12-27T11:34:02.350Z,95.74
2018-12-27T11:35:02.289Z,95.74
2018-12-27T11:36:02.251Z,95.02
2018-12-27T11:37:02.246Z,95.12
2018-12-27T11:38:02.235Z,94.40
2018-12-27T11:39:02.229Z,94.50
2018-12-27T11:40:02.237Z,95.74
2018-12-27T11:41:02.190Z,95.53
2018-12-27T11:42:02.187Z,95.64
2018-12-27T11:43:02.178Z,95.18
2018-12-27T11:44:02.167Z,95.32
2018-12-27T11:45:02.162Z,95.28
2018-12-27T11:46:02.186Z,95.07
2018-12-27T11:47:02.133Z,94.97
2018-12-27T11:48:02.115Z,95.22
2018-12-27T11:49:02.119Z,95.22
2018-12-27T11:50:02.124Z,94.97
2018-12-27T11:51:02.119Z,94.92
2018-12-27T11:52:02.082Z,94.60
2018-12-27T11:53:02.070Z,95.02
2018-12-27T11:54:02.051Z,95.22
2018-12-27T11:55:02.037Z,95.43
2018-12-27T11:56:02.052Z,96.56
2018-12-27T11:57:02.038Z,95.53
2018-12-27T11:58:02.073Z,95.53
2018-12-27T11:59:02.005Z,95.95
2018-12-27T12:00:02.001Z,94.92
2018-12-27T12:01:02.000Z,95.43
2018-12-27T12:02:01.989Z,95.53
2018-12-27T12:03:01.963Z,95.64
2018-12-27T12:04:01.953Z,96.05
2018-12-27T12:05:01.927Z,96.67
2018-12-27T12:06:03.468Z,95.84
2018-12-27T12:07:01.926Z,95.84
2018-12-27T12:08:01.905Z,95.64
2018-12-27T12:09:01.913Z,95.53
2018-12-27T12:10:01.914Z,95.64
2018-12-27T12:11:01.901Z,96.67
2018-12-27T12:12:01.861Z,96.05
2018-12-27T12:13:01.846Z,95.84
2018-12-27T12:14:01.840Z,96.36
2018-12-27T12:15:01.827Z,96.56
2018-12-27T12:16:01.849Z,96.88
2018-12-27T12:17:01.806Z,96.77
2018-12-27T12:18:01.806Z,96.77
2018-12-27T12:19:01.853Z,96.56
2018-12-27T12:20:01.771Z,96.26
2018-12-27T12:21:01.783Z,96.56
2018-12-27T12:22:01.775Z,96.77
2018-12-27T12:23:01.739Z,96.73
2018-12-27T12:24:01.726Z,97.08
2018-12-27T12:25:01.713Z,97.91
2018-12-27T12:26:01.721Z,97.08
2018-12-27T12:27:01.718Z,96.77
2018-12-27T12:28:01.689Z,96.98
2018-12-27T12:29:01.664Z,97.50
2018-12-27T12:30:01.665Z,97.39
2018-12-27T12:31:01.680Z,97.60
2018-12-27T12:32:01.651Z,97.71
2018-12-27T12:33:01.627Z,98.01
2018-12-27T12:34:01.624Z,97.76
2018-12-27T12:35:01.596Z,97.29
2018-12-27T12:36:01.617Z,97.86
2018-12-27T12:37:01.597Z,97.45
2018-12-27T12:38:01.588Z,96.83
2018-12-27T12:39:01.579Z,96.98
2018-12-27T12:40:01.546Z,97.60
2018-12-27T12:41:01.536Z,97.91
2018-12-27T12:42:01.545Z,98.22
2018-12-27T12:43:01.538Z,98.28
2018-12-27T12:44:01.494Z,98.01
2018-12-27T12:45:01.495Z,98.22
2018-12-27T12:46:01.484Z,97.25
2018-12-27T12:47:02.378Z,97.71
2018-12-27T12:48:01.482Z,98.11
2018-12-27T12:49:01.477Z,98.49
2018-12-27T12:50:01.496Z,97.97
2018-12-27T12:51:01.482Z,97.81
2018-12-27T12:52:01.460Z,97.76